Time;durP1;ratioP1;P1;durP2;ratioP2;P2;SDS_P1;SDS_P2;PMS_P1;PMS_P2;Temp;Humidity;BMP_temperature;BMP_pressure;BME280_temperature;BME280_humidity;BME280_pressure;Samples;Min_cycle;Max_cycle;Signal;HPM_P1;HPM_P2
2024/02/21 00:01:26;;;;;;;21.33;5.43;;;;;;;12.35;72.68;101739.22;5025976;27;97150;-70
2024/02/21 00:03:54;;;;;;;23.88;4.93;;;;;;;12.40;72.58;101727.66;5030106;27;97067;-68
2024/02/21 00:06:20;;;;;;;28.20;5.88;;;;;;;12.29;73.44;101730.59;5023743;27;99046;-69
2024/02/21 00:08:47;;;;;;;19.65;4.53;;;;;;;12.23;73.17;101731.63;5029910;27;100090;-69
2024/02/21 00:11:13;;;;;;;27.85;5.55;;;;;;;12.28;73.34;101727.06;5031729;27;96825;-69
2024/02/21 00:13:39;;;;;;;26.30;5.55;;;;;;;12.20;73.39;101721.13;5026510;27;96871;-69
2024/02/21 00:16:06;;;;;;;27.63;5.15;;;;;;;12.55;72.27;101716.59;5030208;27;98903;-69
2024/02/21 00:18:33;;;;;;;24.58;5.25;;;;;;;12.59;71.68;101729.75;5029346;27;99191;-68
2024/02/21 00:21:01;;;;;;;26.52;5.28;;;;;;;12.45;72.39;101717.78;5027593;27;97102;-68
2024/02/21 00:23:28;;;;;;;26.92;5.78;;;;;;;12.59;72.26;101719.16;5025615;27;97974;-68
2024/02/21 00:25:54;;;;;;;24.52;4.70;;;;;;;12.71;72.20;101712.63;5026705;27;99409;-68
2024/02/21 00:28:21;;;;;;;20.10;5.10;;;;;;;12.54;72.72;101709.56;5032212;27;98864;-68
2024/02/21 00:30:48;;;;;;;24.00;5.28;;;;;;;12.62;72.10;101710.22;5028335;27;96741;-69
2024/02/21 00:33:15;;;;;;;23.00;4.93;;;;;;;12.48;72.60;101704.44;5026884;27;96886;-68
2024/02/21 00:35:41;;;;;;;20.65;4.95;;;;;;;12.44;72.85;101700.13;5033775;27;97811;-68
2024/02/21 00:38:09;;;;;;;20.20;4.65;;;;;;;12.32;73.23;101704.00;5028217;27;97752;-68
2024/02/21 00:40:36;;;;;;;21.45;4.97;;;;;;;12.33;73.47;101701.31;5029421;27;96816;-68
2024/02/21 00:43:02;;;;;;;30.05;5.35;;;;;;;12.19;73.68;101703.47;5027573;27;96939;-68
2024/02/21 00:45:29;;;;;;;20.77;4.63;;;;;;;12.30;73.59;101700.53;5022665;27;99162;-68
2024/02/21 00:47:55;;;;;;;21.52;4.80;;;;;;;12.29;73.92;101698.78;5021879;27;99114;-68
2024/02/21 00:50:22;;;;;;;26.80;5.53;;;;;;;12.29;73.38;101694.34;5029849;27;97041;-68
2024/02/21 00:52:48;;;;;;;23.45;4.60;;;;;;;12.12;74.01;101696.59;5025914;27;97278;-69
2024/02/21 00:55:16;;;;;;;27.63;5.22;;;;;;;12.19;73.80;101692.88;5027200;27;99227;-69
2024/02/21 00:57:42;;;;;;;19.77;4.97;;;;;;;12.35;73.29;101688.00;5029259;27;99003;-69
2024/02/21 01:00:10;;;;;;;20.55;4.25;;;;;;;12.39;73.03;101684.38;5025432;27;96810;-70
2024/02/21 01:02:36;;;;;;;25.55;4.97;;;;;;;12.26;72.86;101683.84;5028148;27;97069;-69
2024/02/21 01:05:03;;;;;;;20.67;4.50;;;;;;;12.05;73.80;101684.44;5029578;27;98905;-68
2024/02/21 01:07:30;;;;;;;21.17;4.80;;;;;;;12.39;73.12;101679.06;5035334;27;99310;-68
2024/02/21 01:09:56;;;;;;;26.45;6.57;;;;;;;12.35;72.85;101674.75;5030247;27;97493;-69
2024/02/21 01:12:24;;;;;;;24.48;4.65;;;;;;;11.94;74.24;101674.13;5028694;27;98465;-69
2024/02/21 01:14:50;;;;;;;29.52;5.85;;;;;;;12.05;74.32;101679.13;5022601;27;97664;-69
2024/02/21 01:17:16;;;;;;;28.48;4.82;;;;;;;12.19;73.58;101669.03;5025378;27;98788;-69
2024/02/21 01:19:43;;;;;;;15.27;3.90;;;;;;;12.16;73.84;101670.88;5030742;27;99869;-68
2024/02/21 01:22:09;;;;;;;22.02;4.57;;;;;;;12.06;73.95;101670.28;5032093;27;96777;-69
2024/02/21 01:24:36;;;;;;;23.55;4.65;;;;;;;11.97;73.92;101676.69;5025482;27;98606;-69
2024/02/21 01:27:02;;;;;;;31.77;6.30;;;;;;;12.19;73.14;101665.50;5023975;27;99068;-69
2024/02/21 01:29:29;;;;;;;22.63;4.35;;;;;;;11.91;74.32;101666.25;5028749;27;97789;-70
2024/02/21 01:31:56;;;;;;;18.55;4.25;;;;;;;11.88;74.83;101665.47;5029398;27;98393;-69
2024/02/21 01:34:22;;;;;;;22.15;4.57;;;;;;;12.02;74.21;101652.72;5026946;27;99220;-69
2024/02/21 01:36:49;;;;;;;18.10;4.10;;;;;;;11.97;74.28;101657.25;5029454;27;98780;-69
2024/02/21 01:39:15;;;;;;;31.17;4.90;;;;;;;11.99;73.98;101647.50;5025207;27;97567;-68
2024/02/21 01:41:42;;;;;;;20.00;4.38;;;;;;;11.76;75.09;101655.19;5028461;27;97089;-69
2024/02/21 01:44:08;;;;;;;20.65;4.88;;;;;;;11.86;74.66;101656.69;5024994;27;101844;-68
2024/02/21 01:46:36;;;;;;;18.25;4.03;;;;;;;11.58;75.74;101644.13;5025215;27;99059;-68
2024/02/21 01:49:04;;;;;;;15.48;3.90;;;;;;;11.64;75.37;101647.53;5026219;27;97366;-68
2024/02/21 01:51:31;;;;;;;25.30;4.72;;;;;;;11.59;76.04;101645.00;5026408;27;97017;-68
2024/02/21 01:53:59;;;;;;;19.60;3.85;;;;;;;11.33;77.01;101650.94;5021291;27;98937;-67
2024/02/21 01:56:25;;;;;;;25.10;5.95;;;;;;;11.20;77.58;101641.56;5026346;27;98928;-67
2024/02/21 01:58:52;;;;;;;18.58;4.72;;;;;;;11.64;76.14;101634.28;5025842;27;97274;-68
2024/02/21 02:01:18;;;;;;;23.42;3.95;;;;;;;11.76;75.08;101640.16;5021876;27;96904;-68
2024/02/21 02:03:47;;;;;;;20.30;4.55;;;;;;;11.60;76.04;101638.81;5028271;27;98827;-69
2024/02/21 02:06:15;;;;;;;23.50;4.25;;;;;;;11.63;75.88;101632.53;5022282;27;98954;-68
2024/02/21 02:08:41;;;;;;;21.08;4.97;;;;;;;11.33;77.14;101632.41;5030343;27;99986;-69
2024/02/21 02:11:08;;;;;;;20.02;3.83;;;;;;;11.39;76.82;101621.69;5029089;27;96826;-67
2024/02/21 02:13:34;;;;;;;20.85;4.15;;;;;;;11.54;76.98;101621.31;5025458;27;98877;-69
2024/02/21 02:16:01;;;;;;;29.85;5.65;;;;;;;11.41;77.02;101629.59;5022068;27;98790;-68
2024/02/21 02:18:27;;;;;;;21.67;5.18;;;;;;;11.28;77.98;101621.09;5024258;27;99319;-68
2024/02/21 02:20:56;;;;;;;22.90;4.35;;;;;;;11.37;78.32;101618.19;5027140;27;97271;-68
2024/02/21 02:23:25;;;;;;;24.90;4.25;;;;;;;11.66;77.85;101617.47;5025941;27;99045;-69
2024/02/21 02:25:52;;;;;;;27.98;4.63;;;;;;;11.48;79.30;101615.31;5021512;27;99189;-70
2024/02/21 02:28:19;;;;;;;19.70;4.15;;;;;;;11.10;81.03;101611.78;5029171;27;97017;-69
2024/02/21 02:30:46;;;;;;;20.92;3.58;;;;;;;11.06;81.62;101607.50;5027554;27;97014;-68
2024/02/21 02:33:12;;;;;;;26.00;4.68;;;;;;;11.22;82.13;101608.00;5027950;27;98917;-70
2024/02/21 02:35:38;;;;;;;16.35;3.90;;;;;;;11.21;82.48;101602.75;5022817;27;100770;-69
2024/02/21 02:38:05;;;;;;;18.27;4.45;;;;;;;11.13;82.58;101601.16;5030463;27;98515;-69
2024/02/21 02:40:34;;;;;;;20.58;4.30;;;;;;;11.06;84.38;101598.69;5024405;27;96968;-69
2024/02/21 02:43:01;;;;;;;22.50;4.18;;;;;;;11.32;83.65;101596.28;5023891;27;98979;-69
2024/02/21 02:45:27;;;;;;;22.65;4.50;;;;;;;11.06;84.63;101593.41;5028712;27;98773;-69
2024/02/21 02:47:55;;;;;;;18.67;4.15;;;;;;;11.36;84.20;101597.06;5029782;27;97549;-69
2024/02/21 02:50:21;;;;;;;22.98;4.35;;;;;;;11.21;84.98;101592.16;5024422;27;97237;-68
2024/02/21 02:52:48;;;;;;;14.15;3.67;;;;;;;11.06;85.32;101598.69;5022479;27;97893;-68
2024/02/21 02:55:15;;;;;;;13.18;3.78;;;;;;;11.19;85.97;101584.25;5023205;27;97243;-69
2024/02/21 02:57:43;;;;;;;18.88;4.18;;;;;;;11.41;85.10;101589.91;5030132;27;98659;-68
2024/02/21 03:00:11;;;;;;;23.80;4.97;;;;;;;11.43;85.04;101583.63;5024747;27;96959;-68
2024/02/21 03:02:39;;;;;;;21.27;5.90;;;;;;;11.46;85.00;101586.22;5025665;27;100997;-69
2024/02/21 03:05:15;;;;;;;25.23;5.78;;;;;;;10.87;88.54;101576.25;5025459;27;101631;-69
2024/02/21 03:07:42;;;;;;;21.00;5.40;;;;;;;11.08;88.23;101570.44;5026307;27;96760;-70
2024/02/21 03:10:09;;;;;;;20.95;4.70;;;;;;;10.87;89.20;101565.66;5026714;27;97161;-69
2024/02/21 03:12:36;;;;;;;19.73;5.10;;;;;;;10.96;89.75;101568.09;5020421;27;101462;-68
2024/02/21 03:15:04;;;;;;;19.50;4.78;;;;;;;11.03;88.61;101564.38;5024915;27;99077;-67
2024/02/21 03:17:31;;;;;;;18.95;4.50;;;;;;;10.93;89.71;101554.94;5021233;27;96976;-67
2024/02/21 03:19:58;;;;;;;17.00;4.22;;;;;;;10.93;90.10;101552.28;5026690;27;98962;-68
2024/02/21 03:22:25;;;;;;;22.00;5.00;;;;;;;10.89;90.26;101550.63;5026806;27;99252;-68
2024/02/21 03:24:51;;;;;;;23.92;5.47;;;;;;;10.78;92.24;101549.09;5024945;27;98390;-68
2024/02/21 03:27:18;;;;;;;23.90;5.15;;;;;;;10.94;90.70;101548.75;5021841;27;97979;-68
2024/02/21 03:29:44;;;;;;;24.85;5.20;;;;;;;10.73;92.80;101547.47;5025949;27;98968;-67
2024/02/21 03:32:12;;;;;;;17.00;5.25;;;;;;;10.89;92.33;101550.63;5027060;27;98669;-68
2024/02/21 03:34:38;;;;;;;19.02;5.68;;;;;;;10.84;91.91;101548.09;5025518;27;98845;-68
2024/02/21 03:37:05;;;;;;;19.52;4.95;;;;;;;10.33;95.11;101547.50;5025515;27;97005;-68
2024/02/21 03:39:32;;;;;;;20.60;4.97;;;;;;;10.26;95.50;101544.13;5028851;27;97604;-69
2024/02/21 03:42:00;;;;;;;22.90;5.65;;;;;;;10.19;97.75;101547.78;5027258;27;98255;-69
2024/02/21 03:44:26;;;;;;;13.85;3.83;;;;;;;10.15;96.89;101540.81;5022599;27;98879;-70
2024/02/21 03:46:53;;;;;;;25.35;5.68;;;;;;;10.27;97.26;101539.72;5028763;27;97036;-69
2024/02/21 03:49:20;;;;;;;29.58;6.65;;;;;;;10.68;95.57;101538.78;5028472;27;96870;-70
2024/02/21 03:51:47;;;;;;;20.98;4.65;;;;;;;10.72;94.66;101527.22;5022485;27;98992;-69
2024/02/21 03:54:13;;;;;;;27.83;6.25;;;;;;;10.69;95.18;101525.53;5032783;27;98865;-68
2024/02/21 03:56:40;;;;;;;18.42;5.80;;;;;;;10.80;94.61;101512.06;5026774;27;98345;-67
2024/02/21 03:59:07;;;;;;;20.30;5.53;;;;;;;10.81;94.31;101520.88;5033749;27;96724;-67
2024/02/21 04:01:34;;;;;;;19.55;5.82;;;;;;;10.94;93.63;101524.94;5031729;27;101446;-67
2024/02/21 04:04:00;;;;;;;22.30;5.47;;;;;;;10.92;93.68;101518.81;5028113;27;99108;-67
2024/02/21 04:06:28;;;;;;;25.10;6.78;;;;;;;10.75;94.14;101520.13;5029550;27;97387;-67
2024/02/21 04:08:54;;;;;;;23.33;5.72;;;;;;;10.95;93.85;101516.13;5035145;27;96770;-67
2024/02/21 04:11:20;;;;;;;21.52;6.47;;;;;;;10.91;93.74;101514.44;5026692;27;98322;-68
2024/02/21 04:13:48;;;;;;;17.27;5.53;;;;;;;10.97;93.65;101503.69;5029290;27;99094;-68
2024/02/21 04:16:15;;;;;;;24.15;5.55;;;;;;;10.99;94.17;101496.59;5031155;27;97505;-69
2024/02/21 04:18:42;;;;;;;15.52;5.50;;;;;;;11.32;91.71;101493.09;5029173;27;97004;-70
2024/02/21 04:21:09;;;;;;;25.80;6.38;;;;;;;11.24;92.07;101480.97;5027987;27;98849;-70
2024/02/21 04:23:37;;;;;;;19.20;6.15;;;;;;;11.39;91.36;101486.72;5030357;27;102592;-71
2024/02/21 04:26:03;;;;;;;21.67;6.28;;;;;;;11.58;90.19;101476.50;5031044;27;96726;-70
2024/02/21 04:28:29;;;;;;;21.08;5.93;;;;;;;11.69;88.75;101474.41;5031004;27;96992;-69
2024/02/21 04:30:56;;;;;;;22.02;5.95;;;;;;;11.16;91.04;101474.09;5028046;27;97681;-71
2024/02/21 04:33:22;;;;;;;26.33;5.95;;;;;;;11.37;91.15;101462.06;5029715;27;99797;-69
2024/02/21 04:35:49;;;;;;;23.02;5.63;;;;;;;11.43;90.16;101461.03;5033355;27;97696;-69
2024/02/21 04:38:15;;;;;;;28.65;7.25;;;;;;;11.52;89.80;101451.06;5032315;27;96814;-69
2024/02/21 04:40:43;;;;;;;22.70;6.10;;;;;;;11.64;89.45;101443.69;5029918;27;97884;-70
2024/02/21 04:43:09;;;;;;;20.80;5.60;;;;;;;11.65;88.60;101430.41;5027888;27;98905;-70
2024/02/21 04:45:35;;;;;;;21.98;6.25;;;;;;;11.77;88.23;101434.50;5025164;27;98458;-70
2024/02/21 04:48:02;;;;;;;23.98;6.38;;;;;;;11.75;88.54;101436.34;5033749;27;98287;-70
2024/02/21 04:50:28;;;;;;;24.67;5.97;;;;;;;11.58;88.79;101440.31;5027873;27;98965;-70
2024/02/21 04:52:55;;;;;;;20.20;6.32;;;;;;;11.24;90.43;101435.97;5018096;27;102126;-70
2024/02/21 04:55:21;;;;;;;21.80;6.47;;;;;;;11.26;90.42;101429.75;5026630;27;99547;-70
2024/02/21 04:57:49;;;;;;;22.88;6.03;;;;;;;11.00;92.25;101426.94;5034133;27;96930;-69
2024/02/21 05:00:16;;;;;;;17.08;5.63;;;;;;;11.16;91.17;101421.19;5025185;27;98385;-70
2024/02/21 05:02:42;;;;;;;20.05;5.80;;;;;;;11.36;90.80;101423.28;5025247;27;99517;-69
2024/02/21 05:05:08;;;;;;;30.67;6.38;;;;;;;11.46;89.57;101426.56;5028319;27;97358;-69
2024/02/21 05:07:35;;;;;;;21.42;5.97;;;;;;;11.49;89.13;101423.81;5031434;27;96655;-68
2024/02/21 05:10:02;;;;;;;21.05;5.78;;;;;;;11.47;89.16;101423.00;5029410;27;99401;-68
2024/02/21 05:12:30;;;;;;;17.75;5.70;;;;;;;11.30;90.11;101422.59;5030040;27;99095;-68
2024/02/21 05:14:57;;;;;;;21.80;6.15;;;;;;;11.27;90.34;101423.56;5028519;27;97083;-70
2024/02/21 05:17:23;;;;;;;24.92;5.47;;;;;;;11.09;90.51;101426.72;5030965;27;97304;-68
2024/02/21 05:19:50;;;;;;;23.70;6.80;;;;;;;11.13;91.26;101420.41;5029215;27;102326;-68
2024/02/21 05:22:16;;;;;;;19.88;6.03;;;;;;;11.37;90.33;101418.88;5029519;27;98751;-68
2024/02/21 05:24:42;;;;;;;23.75;5.55;;;;;;;11.43;89.68;101421.34;5029222;27;99108;-68
2024/02/21 05:27:09;;;;;;;22.15;6.57;;;;;;;11.31;89.97;101414.63;5029414;27;97035;-69
2024/02/21 05:29:35;;;;;;;28.08;7.50;;;;;;;11.31;89.84;101414.63;5026059;27;99338;-69
2024/02/21 05:32:03;;;;;;;22.00;6.63;;;;;;;11.15;90.57;101413.31;5029609;27;99306;-68
2024/02/21 05:34:30;;;;;;;25.38;7.28;;;;;;;11.18;90.46;101418.50;5034478;27;97960;-69
2024/02/21 05:36:57;;;;;;;24.23;6.97;;;;;;;11.00;91.48;101422.53;5035449;27;97389;-67
2024/02/21 05:39:23;;;;;;;23.13;6.97;;;;;;;11.25;90.65;101422.72;5024470;27;99818;-68
2024/02/21 05:41:50;;;;;;;27.33;6.78;;;;;;;10.98;92.42;101426.97;5031061;27;101740;-68
2024/02/21 05:44:17;;;;;;;24.40;6.95;;;;;;;11.16;91.03;101415.91;5022780;27;97263;-69
2024/02/21 05:46:43;;;;;;;21.25;6.65;;;;;;;11.41;90.16;101421.41;5024307;27;96982;-68
2024/02/21 05:49:11;;;;;;;20.80;6.63;;;;;;;11.29;91.09;101411.13;5022659;27;99330;-68
2024/02/21 05:51:37;;;;;;;20.60;7.07;;;;;;;11.05;91.62;101417.09;5024390;27;99143;-68
2024/02/21 05:54:04;;;;;;;27.15;7.13;;;;;;;11.32;90.27;101411.06;5024806;27;97645;-68
2024/02/21 05:56:30;;;;;;;24.00;6.97;;;;;;;11.34;90.21;101403.09;5024893;27;97317;-68
2024/02/21 05:58:57;;;;;;;24.50;6.85;;;;;;;11.17;90.37;101406.19;5030671;27;99640;-68
2024/02/21 06:01:23;;;;;;;22.13;7.32;;;;;;;11.16;91.14;101393.88;5029321;27;98212;-69
2024/02/21 06:03:49;;;;;;;23.20;7.63;;;;;;;11.22;90.72;101399.03;5033393;27;97350;-70
2024/02/21 06:06:17;;;;;;;17.65;6.22;;;;;;;11.09;91.21;101402.91;5028130;27;96893;-70
2024/02/21 06:08:43;;;;;;;20.10;6.82;;;;;;;11.06;91.45;101400.34;5031905;27;99340;-69
2024/02/21 06:11:10;;;;;;;24.52;7.22;;;;;;;11.15;91.17;101392.16;5023930;27;98091;-69
2024/02/21 06:13:39;;;;;;;27.27;7.72;;;;;;;11.05;91.08;101396.81;5019504;27;97066;-68
2024/02/21 06:16:07;;;;;;;27.88;8.15;;;;;;;11.38;90.25;101389.72;5031207;27;97869;-69
2024/02/21 06:18:33;;;;;;;22.75;7.80;;;;;;;11.10;91.04;101384.34;5031000;27;98909;-68
2024/02/21 06:21:00;;;;;;;24.20;6.93;;;;;;;11.31;90.47;101385.50;5026515;27;98991;-68
2024/02/21 06:23:27;;;;;;;29.13;8.38;;;;;;;11.34;90.43;101387.22;5028628;27;97203;-67
2024/02/21 06:25:54;;;;;;;30.88;7.78;;;;;;;11.18;90.57;101392.06;5025215;27;98506;-68
2024/02/21 06:28:21;;;;;;;21.67;7.57;;;;;;;11.17;91.24;101382.38;5025945;27;99233;-70
2024/02/21 06:30:47;;;;;;;26.05;8.23;;;;;;;11.29;90.30;101389.97;5027227;27;99431;-70
2024/02/21 06:33:14;;;;;;;23.35;7.47;;;;;;;11.23;90.14;101368.97;5027812;27;97075;-69
2024/02/21 06:35:42;;;;;;;27.00;9.00;;;;;;;11.36;89.94;101386.25;5025425;27;98480;-69
2024/02/21 06:38:09;;;;;;;24.23;8.77;;;;;;;11.24;90.17;101383.94;5029345;27;98571;-69
2024/02/21 06:40:39;;;;;;;20.52;7.60;;;;;;;11.10;91.10;101388.75;5025081;27;99134;-69
2024/02/21 06:43:07;;;;;;;29.73;7.85;;;;;;;11.24;90.59;101391.00;5030950;27;97208;-70
2024/02/21 06:45:33;;;;;;;25.02;8.00;;;;;;;11.54;89.56;101387.50;5027003;27;97172;-69
2024/02/21 06:47:59;;;;;;;25.13;7.88;;;;;;;11.48;88.61;101388.56;5029688;27;99142;-68
2024/02/21 06:50:26;;;;;;;23.00;8.27;;;;;;;11.22;90.05;101396.38;5024017;27;99171;-68
2024/02/21 06:52:52;;;;;;;30.42;8.50;;;;;;;11.00;91.19;101388.16;5028448;27;96807;-68
2024/02/21 06:55:19;;;;;;;33.55;9.18;;;;;;;11.34;89.68;101381.94;5028838;27;97410;-68
2024/02/21 06:57:48;;;;;;;25.55;7.95;;;;;;;11.16;90.64;101388.56;5026735;27;100833;-68
2024/02/21 07:00:16;;;;;;;25.25;7.82;;;;;;;10.82;92.00;101387.78;5028076;27;98856;-68
2024/02/21 07:02:42;;;;;;;23.65;8.45;;;;;;;11.11;91.55;101401.94;5026913;27;96801;-69
2024/02/21 07:05:09;;;;;;;21.45;7.78;;;;;;;11.13;90.81;101391.31;5025364;27;98583;-70
2024/02/21 07:07:35;;;;;;;28.52;8.45;;;;;;;10.93;91.46;101397.16;5025812;27;99247;-69
2024/02/21 07:10:02;;;;;;;17.33;7.57;;;;;;;10.66;93.23;101396.09;5015064;27;99241;-70
2024/02/21 07:12:28;;;;;;;20.80;7.72;;;;;;;10.91;92.64;101393.66;5016770;27;96995;-70
2024/02/21 07:14:56;;;;;;;23.50;8.80;;;;;;;11.01;91.48;101391.66;5019364;27;97516;-76
2024/02/21 07:17:22;;;;;;;20.88;8.35;;;;;;;10.86;91.56;101384.13;5025738;27;98917;-76
2024/02/21 07:19:48;;;;;;;22.50;7.47;;;;;;;10.99;91.37;101391.69;5030395;27;101529;-77
2024/02/21 07:22:15;;;;;;;24.95;9.00;;;;;;;11.01;91.23;101384.59;5028514;27;99492;-78
2024/02/21 07:24:41;;;;;;;20.25;8.00;;;;;;;11.37;89.01;101390.63;5023057;27;98493;-78
2024/02/21 07:27:07;;;;;;;22.73;8.18;;;;;;;11.07;90.43;101383.56;5024117;27;98954;-77
2024/02/21 07:29:34;;;;;;;21.02;9.07;;;;;;;11.34;89.96;101392.50;5030919;27;99875;-77
2024/02/21 07:32:02;;;;;;;24.63;8.82;;;;;;;11.33;89.05;101382.84;5031893;27;99146;-77
2024/02/21 07:34:28;;;;;;;19.42;7.90;;;;;;;11.76;87.40;101375.38;5022664;27;99243;-78
2024/02/21 07:36:55;;;;;;;22.55;8.38;;;;;;;11.94;85.50;101381.91;5032131;27;98898;-77
2024/02/21 07:39:21;;;;;;;22.00;8.65;;;;;;;11.82;85.79;101390.22;5022115;27;98092;-77
2024/02/21 07:41:49;;;;;;;22.10;8.35;;;;;;;11.77;86.28;101384.19;5022467;27;97028;-76
2024/02/21 07:44:15;;;;;;;16.85;7.38;;;;;;;11.89;86.28;101384.69;5028625;27;97390;-77
2024/02/21 07:46:41;;;;;;;25.10;7.65;;;;;;;11.96;84.90;101393.31;5017488;27;99175;-76
2024/02/21 07:49:09;;;;;;;20.27;7.72;;;;;;;11.71;85.99;101390.50;5023992;27;99282;-76
2024/02/21 07:51:36;;;;;;;20.67;7.53;;;;;;;11.59;86.47;101385.59;5027385;27;97289;-77
2024/02/21 07:54:04;;;;;;;20.33;6.85;;;;;;;11.78;85.68;101384.16;5027600;27;98753;-77
2024/02/21 07:56:31;;;;;;;26.15;7.53;;;;;;;11.96;84.99;101388.00;5023730;27;98383;-76
2024/02/21 07:58:57;;;;;;;20.80;7.03;;;;;;;11.88;84.70;101390.06;5023657;27;101786;-76
2024/02/21 08:01:23;;;;;;;19.75;6.70;;;;;;;11.34;86.86;101382.78;5026989;27;97025;-77
2024/02/21 08:03:50;;;;;;;18.48;6.22;;;;;;;10.80;89.63;101379.88;5028349;27;96968;-77
2024/02/21 08:06:17;;;;;;;18.35;6.75;;;;;;;11.42;88.21;101379.94;5029916;27;101527;-77
2024/02/21 08:08:44;;;;;;;20.10;8.18;;;;;;;11.69;86.09;101391.47;5029658;27;99239;-78
2024/02/21 08:11:10;;;;;;;15.45;7.13;;;;;;;12.00;84.45;101378.22;5030987;27;96881;-77
2024/02/21 08:13:37;;;;;;;20.30;6.88;;;;;;;11.43;86.17;101373.69;5024350;27;97380;-77
2024/02/21 08:16:04;;;;;;;21.60;7.60;;;;;;;11.69;85.94;101381.75;5020353;27;100143;-77
2024/02/21 08:18:30;;;;;;;23.13;7.28;;;;;;;11.88;84.25;101374.16;5027501;27;98867;-77
2024/02/21 08:20:56;;;;;;;17.27;7.28;;;;;;;11.75;85.12;101380.75;5028005;27;97213;-76
2024/02/21 08:23:25;;;;;;;18.17;6.57;;;;;;;11.66;85.93;101373.03;5034783;27;96800;-77
2024/02/21 08:25:51;;;;;;;19.92;6.95;;;;;;;11.68;85.27;101376.50;5023179;27;99364;-76
2024/02/21 08:28:17;;;;;;;19.15;6.60;;;;;;;12.00;83.76;101373.78;5029254;27;98895;-77
2024/02/21 08:30:47;;;;;;;20.42;7.07;;;;;;;11.91;84.41;101374.94;5026629;27;96790;-77
2024/02/21 08:33:14;;;;;;;13.93;7.10;;;;;;;12.17;83.34;101379.41;5020842;27;96969;-77
2024/02/21 08:35:40;;;;;;;19.55;7.25;;;;;;;11.60;84.37;101374.09;5025898;27;101055;-77
2024/02/21 08:38:07;;;;;;;18.20;7.20;;;;;;;12.14;83.57;101371.53;5019256;27;101478;-77
2024/02/21 08:40:35;;;;;;;18.95;7.43;;;;;;;11.93;83.31;101366.94;5025621;27;98464;-77
2024/02/21 08:43:01;;;;;;;19.65;7.15;;;;;;;11.98;83.16;101371.16;5028360;27;97174;-78
2024/02/21 08:45:27;;;;;;;22.55;7.25;;;;;;;11.71;83.57;101376.41;5021628;27;99185;-77
2024/02/21 08:47:54;;;;;;;21.48;8.32;;;;;;;11.71;85.28;101373.75;5028778;27;98752;-77
2024/02/21 08:50:20;;;;;;;21.63;7.90;;;;;;;11.75;84.96;101376.28;5026814;27;101077;-77
2024/02/21 08:52:46;;;;;;;20.55;7.80;;;;;;;11.88;83.69;101371.53;5028103;27;97350;-77
2024/02/21 08:55:13;;;;;;;19.30;8.10;;;;;;;11.93;83.24;101375.75;5024397;27;97595;-76
2024/02/21 08:57:41;;;;;;;19.00;8.27;;;;;;;12.20;82.40;101373.16;5023350;27;98896;-76
2024/02/21 09:00:10;;;;;;;22.77;7.82;;;;;;;12.18;82.31;101370.53;5021630;27;96892;-77
2024/02/21 09:02:38;;;;;;;18.00;6.90;;;;;;;11.96;82.22;101373.00;5027622;27;97244;-76
2024/02/21 09:05:06;;;;;;;20.20;7.80;;;;;;;11.71;83.74;101371.13;5024064;27;99002;-78
2024/02/21 09:07:32;;;;;;;21.17;7.97;;;;;;;11.77;83.39;101373.59;5033512;27;98770;-76
2024/02/21 09:09:58;;;;;;;20.55;8.18;;;;;;;11.88;82.56;101364.41;5026461;27;97560;-77
2024/02/21 09:12:25;;;;;;;21.70;7.75;;;;;;;12.15;81.93;101375.06;5023428;27;97130;-77
2024/02/21 09:14:53;;;;;;;22.30;8.32;;;;;;;11.64;83.11;101374.84;5029036;27;98910;-76
2024/02/21 09:17:20;;;;;;;23.75;7.78;;;;;;;11.54;82.76;101367.22;5022515;27;98861;-77
2024/02/21 09:19:47;;;;;;;27.75;8.63;;;;;;;11.51;84.30;101363.75;5024683;27;97404;-77
2024/02/21 09:22:13;;;;;;;20.48;8.00;;;;;;;11.76;84.06;101363.91;5021496;27;98971;-76
2024/02/21 09:24:39;;;;;;;23.90;9.88;;;;;;;12.04;81.46;101375.41;5019122;27;100200;-78
2024/02/21 09:27:06;;;;;;;26.88;10.45;;;;;;;11.37;84.57;101364.16;5020531;27;98796;-76
2024/02/21 09:29:33;;;;;;;20.05;7.13;;;;;;;11.49;83.79;101360.28;5024862;27;96983;-78
2024/02/21 09:32:02;;;;;;;19.25;8.10;;;;;;;11.59;84.29;101361.78;5019153;27;100854;-76
2024/02/21 09:34:29;;;;;;;23.67;9.65;;;;;;;11.71;83.39;101358.75;5027911;27;101294;-76
2024/02/21 09:36:55;;;;;;;20.58;8.95;;;;;;;12.16;81.25;101364.41;5020694;27;99435;-77
2024/02/21 09:39:22;;;;;;;27.52;9.80;;;;;;;11.72;83.58;101349.03;5026358;27;97358;-77
2024/02/21 09:41:55;;;;;;;26.65;9.55;;;;;;;12.00;81.89;101352.59;5024862;27;96763;-76
2024/02/21 09:44:22;;;;;;;30.42;7.78;;;;;;;11.66;81.93;101352.72;5023484;27;98873;-77
2024/02/21 09:46:56;;;;;;;25.15;8.75;;;;;;;11.47;84.39;101351.56;5024625;27;98056;-76
2024/02/21 09:49:32;;;;;;;27.65;9.18;;;;;;;11.95;82.55;101349.19;5019408;27;97632;-76
2024/02/21 09:52:00;;;;;;;21.90;8.60;;;;;;;11.98;81.55;101342.03;5024310;27;96884;-77
2024/02/21 09:54:29;;;;;;;22.00;9.52;;;;;;;12.10;81.40;101353.16;5027302;27;101220;-76
2024/02/21 09:56:55;;;;;;;30.13;10.05;;;;;;;12.00;81.84;101357.88;5018644;27;99126;-77
2024/02/21 09:59:23;;;;;;;16.98;8.13;;;;;;;12.24;80.26;101349.16;5020110;27;99907;-77
2024/02/21 10:01:50;;;;;;;22.45;8.48;;;;;;;11.68;82.86;101352.69;5025457;27;96881;-77
2024/02/21 10:04:18;;;;;;;18.00;8.15;;;;;;;11.92;81.50;101339.59;5030594;27;99029;-78
2024/02/21 10:06:46;;;;;;;19.95;9.07;;;;;;;12.15;81.37;101345.91;5034237;27;100773;-77
2024/02/21 10:09:22;;;;;;;16.00;8.25;;;;;;;11.91;81.70;101345.78;5033254;27;99389;-76
2024/02/21 10:11:49;;;;;;;;;;;;;;;11.50;82.43;101341.72;5035871;27;98092;-76
2024/02/21 10:14:17;;;;;;;18.27;8.37;;;;;;;11.37;83.20;101339.47;5027462;27;99084;-76
2024/02/21 10:16:44;;;;;;;20.17;8.60;;;;;;;11.67;82.65;101348.31;5032765;27;98091;-77
2024/02/21 10:19:17;;;;;;;27.88;9.13;;;;;;;11.75;82.32;101338.38;5029385;27;97231;-76
2024/02/21 10:21:44;;;;;;;22.88;8.27;;;;;;;12.07;80.56;101340.88;5030102;27;96776;-77
2024/02/21 10:24:13;;;;;;;19.75;7.70;;;;;;;11.71;81.67;101339.34;5025348;27;100599;-76
2024/02/21 10:26:39;;;;;;;17.77;8.50;;;;;;;11.82;81.94;101353.16;5030444;27;98958;-77
2024/02/21 10:29:16;;;;;;;17.90;7.20;;;;;;;11.83;81.40;101346.94;5030275;27;97301;-77
2024/02/21 10:31:43;;;;;;;23.67;8.43;;;;;;;11.96;81.67;101345.63;5031353;27;96746;-75
2024/02/21 10:34:15;;;;;;;20.65;7.72;;;;;;;11.80;81.99;101347.91;5026592;27;99286;-70
2024/02/21 10:36:43;;;;;;;16.70;7.80;;;;;;;11.87;80.89;101345.94;5019151;27;98841;-71
2024/02/21 10:39:11;;;;;;;12.98;7.88;;;;;;;11.67;82.67;101353.59;5026718;27;97290;-71
2024/02/21 10:41:44;;;;;;;21.08;7.43;;;;;;;11.99;82.15;101345.56;5036400;27;98039;-77
2024/02/21 10:44:16;;;;;;;20.83;7.75;;;;;;;11.70;82.81;101340.25;5030521;27;100831;-70
2024/02/21 10:46:52;;;;;;;19.25;7.90;;;;;;;12.02;82.10;101348.09;5026964;27;98674;-70
2024/02/21 10:49:25;;;;;;;17.40;7.30;;;;;;;11.96;82.32;101343.84;5028450;27;97087;-70
2024/02/21 10:51:55;;;;;;;15.60;7.40;;;;;;;11.71;83.19;101328.75;5029683;27;98094;-78
2024/02/21 10:54:37;;;;;;;19.75;8.02;;;;;;;11.76;83.84;101327.72;5034826;27;99202;-77
2024/02/21 10:57:07;;;;;;;14.65;7.60;;;;;;;12.37;81.72;101326.63;5028428;27;97344;-78
2024/02/21 10:59:35;;;;;;;11.38;7.00;;;;;;;12.62;80.24;101333.72;5025220;27;96817;-77
2024/02/21 11:02:02;;;;;;;12.43;7.50;;;;;;;12.62;80.47;101331.06;5027004;27;96838;-77
2024/02/21 11:04:30;;;;;;;19.48;7.53;;;;;;;12.65;80.65;101326.53;5028216;27;98914;-77
2024/02/21 11:06:57;;;;;;;14.43;7.50;;;;;;;12.43;81.45;101319.38;5027584;27;98723;-76
2024/02/21 11:09:30;;;;;;;20.27;8.25;;;;;;;12.20;82.91;101312.22;5020559;27;96845;-76
2024/02/21 11:11:58;;;;;;;17.40;7.25;;;;;;;12.46;81.85;101298.94;5019681;27;98336;-76
2024/02/21 11:14:27;;;;;;;18.40;7.10;;;;;;;12.34;82.45;101291.38;5022374;27;100050;-76
2024/02/21 11:16:55;;;;;;;19.33;7.72;;;;;;;12.86;80.47;101293.09;5026001;27;100182;-76